sensor_id;sensor_type;location;lat;lon;timestamp;pressure;altitude;pressure_sealevel;temperature;humidity
78485;BME280;67773;50.806;8.776;2024-02-26T00:00:31;98032.34;;;2.45;100.00
78485;BME280;67773;50.806;8.776;2024-02-26T00:02:57;98031.63;;;2.41;100.00
78485;BME280;67773;50.806;8.776;2024-02-26T00:05:22;98030.56;;;2.45;100.00
78485;BME280;67773;50.806;8.776;2024-02-26T00:07:48;98024.41;;;2.46;100.00
78485;BME280;67773;50.806;8.776;2024-02-26T00:10:14;98024.06;;;2.54;100.00
78485;BME280;67773;50.806;8.776;2024-02-26T00:12:39;98026.03;;;2.49;100.00
78485;BME280;67773;50.806;8.776;2024-02-26T00:15:06;98019.53;;;2.57;100.00
78485;BME280;67773;50.806;8.776;2024-02-26T00:17:31;98026.00;;;2.50;100.00
78485;BME280;67773;50.806;8.776;2024-02-26T00:19:57;98026.00;;;2.50;100.00
78485;BME280;67773;50.806;8.776;2024-02-26T00:22:22;98019.94;;;2.48;100.00
78485;BME280;67773;50.806;8.776;2024-02-26T00:24:47;98022.22;;;2.56;100.00
78485;BME280;67773;50.806;8.776;2024-02-26T00:27:13;98028.91;;;2.63;100.00
78485;BME280;67773;50.806;8.776;2024-02-26T00:29:38;98023.16;;;2.55;100.00
78485;BME280;67773;50.806;8.776;2024-02-26T00:32:04;98019.28;;;2.64;100.00
78485;BME280;67773;50.806;8.776;2024-02-26T00:34:29;98012.34;;;2.63;100.00
78485;BME280;67773;50.806;8.776;2024-02-26T00:36:54;98008.81;;;2.64;100.00
78485;BME280;67773;50.806;8.776;2024-02-26T00:39:20;98012.25;;;2.64;100.00
78485;BME280;67773;50.806;8.776;2024-02-26T00:41:45;98006.88;;;2.67;100.00
78485;BME280;67773;50.806;8.776;2024-02-26T00:44:10;98001.56;;;2.69;100.00
78485;BME280;67773;50.806;8.776;2024-02-26T00:46:36;98000.72;;;2.68;100.00
78485;BME280;67773;50.806;8.776;2024-02-26T00:49:02;97994.94;;;2.62;100.00
78485;BME280;67773;50.806;8.776;2024-02-26T00:51:28;97997.97;;;2.52;100.00
78485;BME280;67773;50.806;8.776;2024-02-26T00:53:54;98002.13;;;2.56;100.00
78485;BME280;67773;50.806;8.776;2024-02-26T00:56:19;97986.56;;;2.53;100.00
78485;BME280;67773;50.806;8.776;2024-02-26T00:58:45;97988.13;;;2.57;100.00
78485;BME280;67773;50.806;8.776;2024-02-26T01:01:10;97991.38;;;2.63;100.00
78485;BME280;67773;50.806;8.776;2024-02-26T01:03:35;97991.66;;;2.56;100.00
78485;BME280;67773;50.806;8.776;2024-02-26T01:06:01;98000.28;;;2.58;100.00
78485;BME280;67773;50.806;8.776;2024-02-26T01:08:26;97994.50;;;2.52;100.00
78485;BME280;67773;50.806;8.776;2024-02-26T01:10:51;98005.53;;;2.58;100.00
78485;BME280;67773;50.806;8.776;2024-02-26T01:13:16;98003.38;;;2.48;100.00
78485;BME280;67773;50.806;8.776;2024-02-26T01:15:42;97998.75;;;2.54;100.00
78485;BME280;67773;50.806;8.776;2024-02-26T01:18:09;98004.75;;;2.56;100.00
78485;BME280;67773;50.806;8.776;2024-02-26T01:20:34;98013.59;;;2.54;100.00
78485;BME280;67773;50.806;8.776;2024-02-26T01:22:59;98009.41;;;2.50;100.00
78485;BME280;67773;50.806;8.776;2024-02-26T01:25:25;98008.69;;;2.46;100.00
78485;BME280;67773;50.806;8.776;2024-02-26T01:27:50;98007.94;;;2.44;100.00
78485;BME280;67773;50.806;8.776;2024-02-26T01:30:15;98000.84;;;2.46;100.00
78485;BME280;67773;50.806;8.776;2024-02-26T01:32:42;98004.31;;;2.47;100.00
78485;BME280;67773;50.806;8.776;2024-02-26T01:35:08;97995.47;;;2.49;100.00
78485;BME280;67773;50.806;8.776;2024-02-26T01:37:37;97997.19;;;2.50;100.00
78485;BME280;67773;50.806;8.776;2024-02-26T01:40:02;97991.25;;;2.66;100.00
78485;BME280;67773;50.806;8.776;2024-02-26T01:42:29;98001.88;;;2.63;100.00
78485;BME280;67773;50.806;8.776;2024-02-26T01:44:55;98000.28;;;2.58;100.00
78485;BME280;67773;50.806;8.776;2024-02-26T01:47:21;98005.84;;;2.71;100.00
78485;BME280;67773;50.806;8.776;2024-02-26T01:49:46;98006.09;;;2.65;100.00
78485;BME280;67773;50.806;8.776;2024-02-26T01:52:12;98017.44;;;2.66;100.00
78485;BME280;67773;50.806;8.776;2024-02-26T01:54:39;98013.75;;;2.70;100.00
78485;BME280;67773;50.806;8.776;2024-02-26T01:57:06;98022.88;;;2.80;100.00
78485;BME280;67773;50.806;8.776;2024-02-26T01:59:34;98024.66;;;2.79;100.00
78485;BME280;67773;50.806;8.776;2024-02-26T02:02:01;98017.28;;;2.87;100.00
78485;BME280;67773;50.806;8.776;2024-02-26T02:04:29;98015.16;;;2.77;100.00
78485;BME280;67773;50.806;8.776;2024-02-26T02:06:54;98020.75;;;2.88;100.00
78485;BME280;67773;50.806;8.776;2024-02-26T02:09:20;98019.75;;;2.90;100.00
78485;BME280;67773;50.806;8.776;2024-02-26T02:11:48;98019.63;;;2.94;100.00
78485;BME280;67773;50.806;8.776;2024-02-26T02:14:14;98015.44;;;2.89;100.00
78485;BME280;67773;50.806;8.776;2024-02-26T02:16:39;98011.19;;;2.87;100.00
78485;BME280;67773;50.806;8.776;2024-02-26T02:19:05;97994.97;;;2.79;100.00
78485;BME280;67773;50.806;8.776;2024-02-26T02:21:30;98007.97;;;2.82;100.00
78485;BME280;67773;50.806;8.776;2024-02-26T02:23:55;98017.44;;;2.84;100.00
78485;BME280;67773;50.806;8.776;2024-02-26T02:26:21;98018.13;;;2.88;100.00
78485;BME280;67773;50.806;8.776;2024-02-26T02:28:47;98017.13;;;2.90;100.00
78485;BME280;67773;50.806;8.776;2024-02-26T02:31:14;98011.34;;;2.84;100.00
78485;BME280;67773;50.806;8.776;2024-02-26T02:33:39;98009.72;;;2.81;100.00
78485;BME280;67773;50.806;8.776;2024-02-26T02:36:05;98011.56;;;2.79;100.00
78485;BME280;67773;50.806;8.776;2024-02-26T02:38:35;98014.06;;;2.82;100.00
78485;BME280;67773;50.806;8.776;2024-02-26T02:41:00;98004.59;;;2.97;100.00
78485;BME280;67773;50.806;8.776;2024-02-26T02:43:25;98002.00;;;2.97;100.00
78485;BME280;67773;50.806;8.776;2024-02-26T02:45:51;98009.34;;;2.89;100.00
78485;BME280;67773;50.806;8.776;2024-02-26T02:48:16;98004.94;;;3.08;100.00
78485;BME280;67773;50.806;8.776;2024-02-26T02:50:42;97996.66;;;2.99;100.00
78485;BME280;67773;50.806;8.776;2024-02-26T02:53:07;97992.59;;;2.93;100.00
78485;BME280;67773;50.806;8.776;2024-02-26T02:55:32;97982.88;;;2.95;100.00
78485;BME280;67773;50.806;8.776;2024-02-26T02:57:58;97984.41;;;2.99;100.00
78485;BME280;67773;50.806;8.776;2024-02-26T03:00:23;97981.44;;;2.88;100.00
78485;BME280;67773;50.806;8.776;2024-02-26T03:02:49;97978.97;;;2.85;100.00
78485;BME280;67773;50.806;8.776;2024-02-26T03:05:14;97986.84;;;2.85;100.00
78485;BME280;67773;50.806;8.776;2024-02-26T03:07:40;97974.25;;;2.93;100.00
78485;BME280;67773;50.806;8.776;2024-02-26T03:10:06;97961.84;;;2.97;100.00
78485;BME280;67773;50.806;8.776;2024-02-26T03:12:32;97958.09;;;3.02;100.00
78485;BME280;67773;50.806;8.776;2024-02-26T03:14:57;97962.41;;;3.03;100.00
78485;BME280;67773;50.806;8.776;2024-02-26T03:17:22;97962.16;;;3.08;100.00
78485;BME280;67773;50.806;8.776;2024-02-26T03:19:49;97959.78;;;3.03;100.00
78485;BME280;67773;50.806;8.776;2024-02-26T03:22:18;97955.75;;;2.96;100.00
78485;BME280;67773;50.806;8.776;2024-02-26T03:24:44;97955.22;;;3.07;100.00
78485;BME280;67773;50.806;8.776;2024-02-26T03:27:09;97955.38;;;3.04;100.00
78485;BME280;67773;50.806;8.776;2024-02-26T03:29:35;97956.22;;;3.04;100.00
78485;BME280;67773;50.806;8.776;2024-02-26T03:32:00;97952.13;;;2.99;100.00
78485;BME280;67773;50.806;8.776;2024-02-26T03:34:26;97944.09;;;3.02;100.00
78485;BME280;67773;50.806;8.776;2024-02-26T03:36:52;97960.53;;;3.05;100.00
78485;BME280;67773;50.806;8.776;2024-02-26T03:39:17;97972.28;;;3.15;100.00
78485;BME280;67773;50.806;8.776;2024-02-26T03:41:42;97985.53;;;3.12;100.00
78485;BME280;67773;50.806;8.776;2024-02-26T03:44:08;97974.13;;;3.13;100.00
78485;BME280;67773;50.806;8.776;2024-02-26T03:46:33;97978.34;;;3.35;100.00
78485;BME280;67773;50.806;8.776;2024-02-26T03:48:58;97974.31;;;3.28;100.00
78485;BME280;67773;50.806;8.776;2024-02-26T03:51:24;97979.00;;;3.21;100.00
78485;BME280;67773;50.806;8.776;2024-02-26T03:53:49;97991.41;;;3.17;100.00
78485;BME280;67773;50.806;8.776;2024-02-26T03:56:14;97989.63;;;3.18;100.00
78485;BME280;67773;50.806;8.776;2024-02-26T03:58:40;98001.75;;;3.21;100.00
78485;BME280;67773;50.806;8.776;2024-02-26T04:01:08;97987.94;;;3.17;100.00
78485;BME280;67773;50.806;8.776;2024-02-26T04:03:34;97992.53;;;3.12;100.00
78485;BME280;67773;50.806;8.776;2024-02-26T04:06:00;97980.34;;;3.11;100.00
78485;BME280;67773;50.806;8.776;2024-02-26T04:08:25;97981.34;;;3.08;100.00
78485;BME280;67773;50.806;8.776;2024-02-26T04:10:50;97985.25;;;3.18;100.00
78485;BME280;67773;50.806;8.776;2024-02-26T04:13:17;97983.69;;;3.14;100.00
78485;BME280;67773;50.806;8.776;2024-02-26T04:15:43;97979.59;;;3.09;100.00
78485;BME280;67773;50.806;8.776;2024-02-26T04:18:08;97980.34;;;3.11;100.00
78485;BME280;67773;50.806;8.776;2024-02-26T04:20:34;97968.50;;;3.21;100.00
78485;BME280;67773;50.806;8.776;2024-02-26T04:22:59;97963.97;;;3.25;100.00
78485;BME280;67773;50.806;8.776;2024-02-26T04:25:24;97954.09;;;3.30;100.00
78485;BME280;67773;50.806;8.776;2024-02-26T04:27:50;97963.97;;;3.25;100.00
78485;BME280;67773;50.806;8.776;2024-02-26T04:30:15;97967.66;;;3.21;100.00
78485;BME280;67773;50.806;8.776;2024-02-26T04:32:42;97974.47;;;3.25;100.00
78485;BME280;67773;50.806;8.776;2024-02-26T04:35:07;97966.06;;;3.35;100.00
78485;BME280;67773;50.806;8.776;2024-02-26T04:37:33;97968.47;;;3.40;100.00
78485;BME280;67773;50.806;8.776;2024-02-26T04:39:59;97969.75;;;3.31;100.00
78485;BME280;67773;50.806;8.776;2024-02-26T04:42:25;97961.28;;;3.26;100.00
78485;BME280;67773;50.806;8.776;2024-02-26T04:44:50;97986.59;;;3.44;100.00
78485;BME280;67773;50.806;8.776;2024-02-26T04:47:16;97993.63;;;3.44;100.00
78485;BME280;67773;50.806;8.776;2024-02-26T04:49:41;97981.88;;;3.51;100.00
78485;BME280;67773;50.806;8.776;2024-02-26T04:52:06;97978.78;;;3.43;100.00
78485;BME280;67773;50.806;8.776;2024-02-26T04:54:32;97973.41;;;3.46;100.00
78485;BME280;67773;50.806;8.776;2024-02-26T04:56:57;97954.56;;;3.38;100.00
78485;BME280;67773;50.806;8.776;2024-02-26T04:59:22;97976.16;;;3.43;100.00
78485;BME280;67773;50.806;8.776;2024-02-26T05:01:47;97990.44;;;3.37;100.00
78485;BME280;67773;50.806;8.776;2024-02-26T05:04:13;97984.34;;;3.37;100.00
78485;BME280;67773;50.806;8.776;2024-02-26T05:06:38;97989.44;;;3.40;100.00
78485;BME280;67773;50.806;8.776;2024-02-26T05:09:03;98001.50;;;3.44;100.00
78485;BME280;67773;50.806;8.776;2024-02-26T05:11:29;98006.03;;;3.40;100.00
78485;BME280;67773;50.806;8.776;2024-02-26T05:13:54;98005.00;;;3.43;100.00
78485;BME280;67773;50.806;8.776;2024-02-26T05:16:19;97999.00;;;3.41;100.00
78485;BME280;67773;50.806;8.776;2024-02-26T05:18:46;97997.94;;;3.45;100.00
78485;BME280;67773;50.806;8.776;2024-02-26T05:21:12;98003.97;;;3.47;100.00
78485;BME280;67773;50.806;8.776;2024-02-26T05:23:37;98003.72;;;3.52;100.00
78485;BME280;67773;50.806;8.776;2024-02-26T05:26:02;97998.47;;;3.52;100.00
78485;BME280;67773;50.806;8.776;2024-02-26T05:28:28;97991.00;;;3.44;100.00
78485;BME280;67773;50.806;8.776;2024-02-26T05:30:53;98004.16;;;3.42;100.00
78485;BME280;67773;50.806;8.776;2024-02-26T05:33:19;98011.25;;;3.40;100.00
78485;BME280;67773;50.806;8.776;2024-02-26T05:35:44;98025.63;;;3.51;100.00
78485;BME280;67773;50.806;8.776;2024-02-26T05:38:10;98031.97;;;3.46;100.00
78485;BME280;67773;50.806;8.776;2024-02-26T05:40:35;98032.66;;;3.50;100.00
78485;BME280;67773;50.806;8.776;2024-02-26T05:43:00;98031.13;;;3.46;100.00
78485;BME280;67773;50.806;8.776;2024-02-26T05:45:26;98032.44;;;3.55;100.00
78485;BME280;67773;50.806;8.776;2024-02-26T05:47:51;98030.81;;;3.52;100.00
78485;BME280;67773;50.806;8.776;2024-02-26T05:50:17;98041.84;;;3.59;100.00
78485;BME280;67773;50.806;8.776;2024-02-26T05:52:42;98036.69;;;3.57;100.00
78485;BME280;67773;50.806;8.776;2024-02-26T05:55:08;98031.81;;;3.50;100.00
78485;BME280;67773;50.806;8.776;2024-02-26T05:57:34;98036.38;;;3.46;100.00
78485;BME280;67773;50.806;8.776;2024-02-26T06:00:00;98036.69;;;3.57;100.00
78485;BME280;67773;50.806;8.776;2024-02-26T06:02:28;98041.00;;;3.58;100.00
78485;BME280;67773;50.806;8.776;2024-02-26T06:04:53;98028.25;;;3.51;100.00
78485;BME280;67773;50.806;8.776;2024-02-26T06:07:19;98035.16;;;3.70;100.00
78485;BME280;67773;50.806;8.776;2024-02-26T06:09:44;98043.56;;;3.60;100.00
78485;BME280;67773;50.806;8.776;2024-02-26T06:12:09;98045.94;;;3.64;100.00
78485;BME280;67773;50.806;8.776;2024-02-26T06:14:35;98055.75;;;3.61;100.00
78485;BME280;67773;50.806;8.776;2024-02-26T06:17:01;98054.81;;;3.62;100.00
78485;BME280;67773;50.806;8.776;2024-02-26T06:19:26;98053.75;;;3.66;100.00
78485;BME280;67773;50.806;8.776;2024-02-26T06:21:51;98051.34;;;3.61;100.00
78485;BME280;67773;50.806;8.776;2024-02-26T06:24:17;98047.03;;;3.60;100.00
78485;BME280;67773;50.806;8.776;2024-02-26T06:26:42;98054.28;;;3.55;100.00
78485;BME280;67773;50.806;8.776;2024-02-26T06:29:07;98059.66;;;3.52;100.00
78485;BME280;67773;50.806;8.776;2024-02-26T06:31:33;98070.47;;;3.63;100.00
78485;BME280;67773;50.806;8.776;2024-02-26T06:33:58;98072.25;;;3.63;100.00
78485;BME280;67773;50.806;8.776;2024-02-26T06:36:23;98075.28;;;3.55;100.00
78485;BME280;67773;50.806;8.776;2024-02-26T06:38:49;98082.41;;;3.52;100.00
78485;BME280;67773;50.806;8.776;2024-02-26T06:41:14;98088.38;;;3.55;100.00
78485;BME280;67773;50.806;8.776;2024-02-26T06:43:40;98088.28;;;3.75;100.00
78485;BME280;67773;50.806;8.776;2024-02-26T06:46:06;98096.16;;;3.75;100.00
78485;BME280;67773;50.806;8.776;2024-02-26T06:48:31;98090.09;;;3.73;100.00
78485;BME280;67773;50.806;8.776;2024-02-26T06:50:57;98096.34;;;3.71;100.00
78485;BME280;67773;50.806;8.776;2024-02-26T06:53:22;98091.19;;;3.69;100.00
78485;BME280;67773;50.806;8.776;2024-02-26T06:55:48;98083.47;;;3.84;100.00
78485;BME280;67773;50.806;8.776;2024-02-26T06:58:15;98093.56;;;3.74;100.00
78485;BME280;67773;50.806;8.776;2024-02-26T07:00:40;98094.22;;;3.79;100.00
78485;BME280;67773;50.806;8.776;2024-02-26T07:03:06;98095.81;;;3.82;100.00
78485;BME280;67773;50.806;8.776;2024-02-26T07:05:31;98100.22;;;3.81;100.00
78485;BME280;67773;50.806;8.776;2024-02-26T07:07:56;98098.38;;;3.83;100.00
78485;BME280;67773;50.806;8.776;2024-02-26T07:10:22;98099.41;;;3.98;100.00
78485;BME280;67773;50.806;8.776;2024-02-26T07:12:47;98105.72;;;3.94;100.00
78485;BME280;67773;50.806;8.776;2024-02-26T07:15:12;98096.53;;;4.02;100.00
78485;BME280;67773;50.806;8.776;2024-02-26T07:17:38;98108.06;;;4.17;100.00
78485;BME280;67773;50.806;8.776;2024-02-26T07:20:07;98118.38;;;4.03;100.00
78485;BME280;67773;50.806;8.776;2024-02-26T07:22:33;98121.88;;;4.03;100.00
78485;BME280;67773;50.806;8.776;2024-02-26T07:24:58;98125.06;;;4.10;100.00
78485;BME280;67773;50.806;8.776;2024-02-26T07:27:24;98126.66;;;4.13;100.00
78485;BME280;67773;50.806;8.776;2024-02-26T07:29:49;98138.94;;;4.12;100.00
78485;BME280;67773;50.806;8.776;2024-02-26T07:32:14;98136.25;;;4.14;100.00
78485;BME280;67773;50.806;8.776;2024-02-26T07:34:40;98135.09;;;4.19;100.00
78485;BME280;67773;50.806;8.776;2024-02-26T07:37:10;98134.09;;;4.39;100.00
78485;BME280;67773;50.806;8.776;2024-02-26T07:39:36;98143.75;;;4.39;100.00
78485;BME280;67773;50.806;8.776;2024-02-26T07:42:02;98140.50;;;4.51;100.00
78485;BME280;67773;50.806;8.776;2024-02-26T07:44:27;98139.88;;;4.63;100.00
78485;BME280;67773;50.806;8.776;2024-02-26T07:46:52;98142.41;;;4.82;100.00
78485;BME280;67773;50.806;8.776;2024-02-26T07:49:18;98141.69;;;4.78;100.00
78485;BME280;67773;50.806;8.776;2024-02-26T07:51:43;98136.81;;;4.88;100.00
78485;BME280;67773;50.806;8.776;2024-02-26T07:54:08;98138.44;;;4.90;100.00
78485;BME280;67773;50.806;8.776;2024-02-26T07:56:34;98122.34;;;4.97;100.00
78485;BME280;67773;50.806;8.776;2024-02-26T07:58:59;98133.53;;;5.00;100.00
78485;BME280;67773;50.806;8.776;2024-02-26T08:01:24;98127.84;;;4.92;100.00
78485;BME280;67773;50.806;8.776;2024-02-26T08:03:52;98131.78;;;5.01;100.00
78485;BME280;67773;50.806;8.776;2024-02-26T08:06:18;98140.94;;;5.09;100.00
78485;BME280;67773;50.806;8.776;2024-02-26T08:08:43;98136.72;;;5.22;100.00
78485;BME280;67773;50.806;8.776;2024-02-26T08:11:09;98141.50;;;5.32;100.00
78485;BME280;67773;50.806;8.776;2024-02-26T08:13:34;98154.22;;;5.39;100.00
78485;BME280;67773;50.806;8.776;2024-02-26T08:16:01;98150.16;;;5.49;100.00
78485;BME280;67773;50.806;8.776;2024-02-26T08:18:26;98154.84;;;5.76;100.00
78485;BME280;67773;50.806;8.776;2024-02-26T08:20:51;98150.94;;;5.67;100.00
78485;BME280;67773;50.806;8.776;2024-02-26T08:23:17;98156.09;;;5.69;100.00
78485;BME280;67773;50.806;8.776;2024-02-26T08:25:42;98151.88;;;5.66;100.00
78485;BME280;67773;50.806;8.776;2024-02-26T08:28:08;98158.16;;;5.64;100.00
78485;BME280;67773;50.806;8.776;2024-02-26T08:30:33;98153.53;;;5.51;100.00
78485;BME280;67773;50.806;8.776;2024-02-26T08:32:59;98150.16;;;5.49;100.00
78485;BME280;67773;50.806;8.776;2024-02-26T08:35:24;98157.72;;;5.56;100.00
78485;BME280;67773;50.806;8.776;2024-02-26T08:37:50;98148.72;;;5.60;100.00
78485;BME280;67773;50.806;8.776;2024-02-26T08:40:15;98153.47;;;5.69;100.00
78485;BME280;67773;50.806;8.776;2024-02-26T08:42:41;98158.22;;;5.78;100.00
78485;BME280;67773;50.806;8.776;2024-02-26T08:45:07;98151.78;;;5.68;100.00
78485;BME280;67773;50.806;8.776;2024-02-26T08:47:33;98156.88;;;5.71;100.00
78485;BME280;67773;50.806;8.776;2024-02-26T08:49:58;98153.38;;;5.70;100.00
78485;BME280;67773;50.806;8.776;2024-02-26T08:52:24;98152.53;;;5.70;100.00
78485;BME280;67773;50.806;8.776;2024-02-26T08:54:49;98154.09;;;5.74;100.00
78485;BME280;67773;50.806;8.776;2024-02-26T08:57:15;98154.25;;;5.87;100.00
78485;BME280;67773;50.806;8.776;2024-02-26T08:59:41;98154.06;;;5.90;100.00
78485;BME280;67773;50.806;8.776;2024-02-26T09:02:07;98151.22;;;5.94;100.00
78485;BME280;67773;50.806;8.776;2024-02-26T09:04:34;98149.44;;;5.95;100.00
78485;BME280;67773;50.806;8.776;2024-02-26T09:07:00;98149.16;;;5.84;100.00
78485;BME280;67773;50.806;8.776;2024-02-26T09:09:26;98155.09;;;5.87;100.00
78485;BME280;67773;50.806;8.776;2024-02-26T09:11:51;98150.44;;;6.08;100.00
78485;BME280;67773;50.806;8.776;2024-02-26T09:14:18;98152.91;;;5.95;100.00
78485;BME280;67773;50.806;8.776;2024-02-26T09:16:43;98162.66;;;5.93;100.00
78485;BME280;67773;50.806;8.776;2024-02-26T09:19:08;98167.03;;;5.94;100.00
78485;BME280;67773;50.806;8.776;2024-02-26T09:21:34;98163.25;;;5.98;100.00
78485;BME280;67773;50.806;8.776;2024-02-26T09:23:59;98160.53;;;6.16;100.00
78485;BME280;67773;50.806;8.776;2024-02-26T09:26:25;98157.19;;;6.12;100.00
78485;BME280;67773;50.806;8.776;2024-02-26T09:28:50;98162.69;;;6.23;100.00
78485;BME280;67773;50.806;8.776;2024-02-26T09:31:17;98173.75;;;6.14;100.00
78485;BME280;67773;50.806;8.776;2024-02-26T09:33:43;98180.66;;;6.17;100.00
78485;BME280;67773;50.806;8.776;2024-02-26T09:36:09;98182.94;;;6.23;100.00
78485;BME280;67773;50.806;8.776;2024-02-26T09:38:36;98185.88;;;6.48;100.00
78485;BME280;67773;50.806;8.776;2024-02-26T09:41:06;98190.84;;;6.69;100.00
78485;BME280;67773;50.806;8.776;2024-02-26T09:43:35;98203.50;;;6.92;100.00
78485;BME280;67773;50.806;8.776;2024-02-26T09:46:05;98195.28;;;6.82;100.00
78485;BME280;67773;50.806;8.776;2024-02-26T09:48:31;98190.56;;;6.87;100.00
78485;BME280;67773;50.806;8.776;2024-02-26T09:51:00;98187.75;;;6.90;100.00
78485;BME280;67773;50.806;8.776;2024-02-26T09:53:29;98184.47;;;7.15;100.00
78485;BME280;67773;50.806;8.776;2024-02-26T09:55:57;98181.88;;;7.30;100.00
78485;BME280;67773;50.806;8.776;2024-02-26T09:58:22;98192.31;;;7.31;100.00
78485;BME280;67773;50.806;8.776;2024-02-26T10:00:51;98209.00;;;7.32;100.00
78485;BME280;67773;50.806;8.776;2024-02-26T10:03:21;98207.66;;;7.39;100.00
78485;BME280;67773;50.806;8.776;2024-02-26T10:05:48;98212.59;;;7.45;100.00
78485;BME280;67773;50.806;8.776;2024-02-26T10:08:14;98199.19;;;7.48;100.00
78485;BME280;67773;50.806;8.776;2024-02-26T10:10:41;98202.50;;;7.51;100.00
78485;BME280;67773;50.806;8.776;2024-02-26T10:13:06;98202.78;;;7.47;100.00
78485;BME280;67773;50.806;8.776;2024-02-26T10:15:36;98204.53;;;7.61;100.00
78485;BME280;67773;50.806;8.776;2024-02-26T10:18:06;98202.72;;;7.90;100.00
78485;BME280;67773;50.806;8.776;2024-02-26T10:20:32;98213.34;;;8.17;100.00
78485;BME280;67773;50.806;8.776;2024-02-26T10:22:58;98214.53;;;7.84;100.00
78485;BME280;67773;50.806;8.776;2024-02-26T10:25:27;98213.50;;;7.87;100.00
78485;BME280;67773;50.806;8.776;2024-02-26T10:27:52;98212.56;;;7.73;100.00
78485;BME280;67773;50.806;8.776;2024-02-26T10:32:47;98220.59;;;7.72;100.00
78485;BME280;67773;50.806;8.776;2024-02-26T10:35:13;98226.72;;;7.72;100.00
78485;BME280;67773;50.806;8.776;2024-02-26T10:37:40;98228.22;;;7.76;100.00
78485;BME280;67773;50.806;8.776;2024-02-26T10:40:09;98228.41;;;7.73;100.00
78485;BME280;67773;50.806;8.776;2024-02-26T10:42:34;98228.41;;;7.73;100.00
78485;BME280;67773;50.806;8.776;2024-02-26T10:45:00;98242.09;;;7.66;100.00
78485;BME280;67773;50.806;8.776;2024-02-26T10:47:27;98241.72;;;7.58;100.00
78485;BME280;67773;50.806;8.776;2024-02-26T10:49:54;98243.31;;;7.46;100.00
78485;BME280;67773;50.806;8.776;2024-02-26T10:52:20;98243.13;;;7.63;100.00
78485;BME280;67773;50.806;8.776;2024-02-26T10:54:47;98241.78;;;7.70;100.00
78485;BME280;67773;50.806;8.776;2024-02-26T10:57:15;98234.81;;;7.84;100.00
78485;BME280;67773;50.806;8.776;2024-02-26T10:59:42;98237.34;;;7.71;100.00
78485;BME280;67773;50.806;8.776;2024-02-26T11:02:09;98230.56;;;7.81;100.00
78485;BME280;67773;50.806;8.776;2024-02-26T11:04:35;98235.59;;;7.71;100.00
78485;BME280;67773;50.806;8.776;2024-02-26T11:07:02;98238.53;;;7.52;100.00
78485;BME280;67773;50.806;8.776;2024-02-26T11:09:28;98247.94;;;7.42;100.00
78485;BME280;67773;50.806;8.776;2024-02-26T11:11:54;98259.53;;;7.40;100.00
78485;BME280;67773;50.806;8.776;2024-02-26T11:14:20;98263.78;;;7.42;100.00
78485;BME280;67773;50.806;8.776;2024-02-26T11:16:47;98260.47;;;7.24;100.00
78485;BME280;67773;50.806;8.776;2024-02-26T11:19:13;98258.66;;;7.25;100.00
78485;BME280;67773;50.806;8.776;2024-02-26T11:21:39;98259.91;;;7.34;100.00
78485;BME280;67773;50.806;8.776;2024-02-26T11:24:12;98264.53;;;7.30;100.00
78485;BME280;67773;50.806;8.776;2024-02-26T11:26:50;98263.75;;;7.14;100.00
78485;BME280;67773;50.806;8.776;2024-02-26T11:29:22;98256.00;;;7.11;100.00
78485;BME280;67773;50.806;8.776;2024-02-26T11:31:50;98259.31;;;7.29;100.00
78485;BME280;67773;50.806;8.776;2024-02-26T11:34:17;98269.75;;;7.16;100.00
78485;BME280;67773;50.806;8.776;2024-02-26T11:36:42;98266.78;;;7.36;100.00
78485;BME280;67773;50.806;8.776;2024-02-26T11:39:08;98256.53;;;7.32;100.00
78485;BME280;67773;50.806;8.776;2024-02-26T11:41:33;98254.63;;;7.48;100.00
78485;BME280;67773;50.806;8.776;2024-02-26T11:44:01;98243.22;;;7.47;100.00
78485;BME280;67773;50.806;8.776;2024-02-26T11:46:28;98242.47;;;7.45;100.00
78485;BME280;67773;50.806;8.776;2024-02-26T11:48:57;98250.28;;;7.47;100.00
78485;BME280;67773;50.806;8.776;2024-02-26T11:51:27;98246.16;;;7.71;100.00
78485;BME280;67773;50.806;8.776;2024-02-26T11:53:54;98247.19;;;7.83;100.00
78485;BME280;67773;50.806;8.776;2024-02-26T11:56:22;98249.91;;;7.96;100.00
78485;BME280;67773;50.806;8.776;2024-02-26T11:58:48;98244.19;;;8.16;100.00
78485;BME280;67773;50.806;8.776;2024-02-26T12:01:53;98254.97;;;8.13;100.00
78485;BME280;67773;50.806;8.776;2024-02-26T12:04:21;98260.06;;;8.02;100.00
78485;BME280;67773;50.806;8.776;2024-02-26T12:06:51;98247.72;;;7.88;100.00
78485;BME280;67773;50.806;8.776;2024-02-26T12:09:37;98255.97;;;7.84;100.00
78485;BME280;67773;50.806;8.776;2024-02-26T12:12:07;98255.66;;;7.88;100.00
78485;BME280;67773;50.806;8.776;2024-02-26T12:14:34;98249.69;;;7.99;100.00
78485;BME280;67773;50.806;8.776;2024-02-26T12:17:00;98261.28;;;8.10;100.00
78485;BME280;67773;50.806;8.776;2024-02-26T12:19:25;98255.56;;;8.04;100.00
78485;BME280;67773;50.806;8.776;2024-02-26T12:21:53;98259.78;;;8.06;100.00
78485;BME280;67773;50.806;8.776;2024-02-26T12:24:20;98259.63;;;7.95;100.00
78485;BME280;67773;50.806;8.776;2024-02-26T12:26:46;98261.19;;;8.12;100.00
78485;BME280;67773;50.806;8.776;2024-02-26T12:29:12;98261.66;;;8.19;100.00
78485;BME280;67773;50.806;8.776;2024-02-26T12:31:39;98263.28;;;8.07;100.00
78485;BME280;67773;50.806;8.776;2024-02-26T12:34:06;98255.16;;;8.10;100.00
78485;BME280;67773;50.806;8.776;2024-02-26T12:36:33;98261.47;;;8.07;100.00
78485;BME280;67773;50.806;8.776;2024-02-26T12:38:59;98258.84;;;8.07;100.00
78485;BME280;67773;50.806;8.776;2024-02-26T12:41:26;98263.00;;;7.97;100.00
78485;BME280;67773;50.806;8.776;2024-02-26T12:43:53;98254.44;;;7.94;100.00
78485;BME280;67773;50.806;8.776;2024-02-26T12:46:18;98253.88;;;7.89;100.00
78485;BME280;67773;50.806;8.776;2024-02-26T12:48:44;98255.56;;;7.90;100.00
78485;BME280;67773;50.806;8.776;2024-02-26T12:51:12;98259.63;;;7.95;100.00
78485;BME280;67773;50.806;8.776;2024-02-26T12:53:39;98260.84;;;8.04;100.00
78485;BME280;67773;50.806;8.776;2024-02-26T12:56:07;98274.22;;;8.01;100.00